Time;durP1;ratioP1;P1;durP2;ratioP2;P2;SDS_P1;SDS_P2;PMS_P1;PMS_P2;Temp;Humidity;BMP_temperature;BMP_pressure;BME280_temperature;BME280_humidity;BME280_pressure;Samples;Min_cycle;Max_cycle;Signal;HPM_P1;HPM_P2
2023/06/22 00:02:04;;;;;;;22.37;20.27;;;25.70;70.50;;;;;;4692109;56;21021;-37
2023/06/22 00:07:05;;;;;;;21.65;19.65;;;25.70;70.50;;;;;;4615497;60;21032;-38
2023/06/22 00:12:07;;;;;;;22.52;20.42;;;25.70;70.50;;;;;;4615498;60;21020;-36
2023/06/22 00:17:08;;;;;;;22.42;20.23;;;25.70;70.50;;;;;;4672110;56;21048;-37
2023/06/22 00:22:08;;;;;;;22.15;20.05;;;25.70;70.50;;;;;;4679369;55;21479;-38
2023/06/22 00:27:09;;;;;;;22.25;20.15;;;25.70;70.50;;;;;;4615412;59;21025;-39
2023/06/22 00:32:10;;;;;;;21.35;19.30;;;25.70;70.50;;;;;;4650699;55;21503;-38
2023/06/22 00:37:11;;;;;;;21.50;19.50;;;25.70;70.50;;;;;;4615399;59;21109;-36
2023/06/22 00:42:12;;;;;;;20.95;19.05;;;25.70;70.60;;;;;;4658839;55;21061;-38
2023/06/22 00:47:18;;;;;;;21.45;19.55;;;25.70;70.60;;;;;;4618873;55;21421;-37
2023/06/22 00:52:27;;;;;;;22.25;20.25;;;25.70;70.60;;;;;;4615474;60;21116;-37
2023/06/22 00:57:28;;;;;;;21.27;19.30;;;25.70;71.20;;;;;;4669529;56;21060;-36
2023/06/22 01:02:29;;;;;;;22.10;20.02;;;25.70;70.60;;;;;;4615545;60;21027;-36
2023/06/22 01:08:59;;;;;;;20.33;18.48;;;25.70;70.60;;;;;;4670808;55;21023;-36
2023/06/22 01:14:29;;;;;;;21.08;19.17;;;25.70;70.60;;;;;;4632104;56;21105;-37
2023/06/22 01:20:07;;;;;;;21.40;19.30;;;25.70;70.60;;;;;;4641725;56;21034;-37
2023/06/22 01:25:19;;;;;;;21.10;19.30;;;25.70;70.60;;;;;;4615152;60;21056;-38
2023/06/22 01:30:21;;;;;;;20.58;18.70;;;25.70;70.60;;;;;;4647066;56;21495;-36
2023/06/22 01:35:23;;;;;;;21.60;19.60;;;25.70;70.60;;;;;;4615448;60;21749;-35
2023/06/22 01:40:25;;;;;;;21.27;19.27;;;25.70;70.60;;;;;;4633007;56;21057;-38
2023/06/22 01:45:27;;;;;;;20.45;18.55;;;25.70;70.60;;;;;;4633231;56;21139;-37
2023/06/22 01:50:29;;;;;;;20.60;18.60;;;25.70;70.60;;;;;;4615577;60;21105;-39
2023/06/22 01:55:29;;;;;;;20.33;18.45;;;25.70;70.60;;;;;;4615317;60;21013;-38
2023/06/22 02:00:34;;;;;;;20.15;18.33;;;25.70;71.20;;;;;;4653873;55;22243;-37
2023/06/22 02:05:42;;;;;;;21.83;19.83;;;25.70;70.60;;;;;;4615667;60;21009;-36
2023/06/22 02:10:45;;;;;;;21.08;19.12;;;25.70;70.60;;;;;;4641308;56;21567;-36
2023/06/22 02:15:47;;;;;;;20.15;18.35;;;25.70;70.60;;;;;;4722130;56;21089;-37
2023/06/22 02:20:47;;;;;;;20.45;18.55;;;25.70;70.60;;;;;;4663268;56;21021;-36
2023/06/22 02:25:49;;;;;;;20.35;18.55;;;25.70;70.60;;;;;;4661080;55;21615;-37
2023/06/22 02:30:49;;;;;;;21.15;19.23;;;25.70;70.60;;;;;;4658294;56;21088;-38
2023/06/22 02:35:50;;;;;;;20.05;18.25;;;25.70;70.70;;;;;;4659165;55;21642;-38
2023/06/22 02:40:51;;;;;;;20.98;19.10;;;25.70;70.60;;;;;;4733402;55;21116;-37
2023/06/22 02:45:52;;;;;;;19.58;17.77;;;25.70;71.30;;;;;;4615527;58;21055;-35
2023/06/22 02:50:53;;;;;;;20.30;18.50;;;25.70;70.70;;;;;;4674641;56;21072;-37
2023/06/22 02:55:55;;;;;;;21.00;19.15;;;25.70;70.70;;;;;;4616154;59;21586;-37
2023/06/22 03:00:56;;;;;;;20.62;18.73;;;25.70;70.70;;;;;;4643053;56;21025;-36
2023/06/22 03:05:57;;;;;;;19.67;17.87;;;25.70;70.60;;;;;;4615775;60;21507;-37
2023/06/22 03:10:57;;;;;;;19.40;17.60;;;25.70;70.70;;;;;;4642122;55;21029;-36
2023/06/22 03:15:58;;;;;;;20.30;18.50;;;25.70;70.70;;;;;;4615772;59;21702;-38
2023/06/22 03:21:02;;;;;;;20.85;18.85;;;25.70;70.70;;;;;;4761441;56;21140;-34
2023/06/22 03:26:04;;;;;;;19.62;17.85;;;25.70;70.70;;;;;;4615850;59;22383;-37
2023/06/22 03:31:06;;;;;;;20.92;19.10;;;25.70;70.80;;;;;;4631041;55;21630;-38
2023/06/22 03:36:08;;;;;;;20.27;18.48;;;25.70;70.80;;;;;;4615837;59;21511;-35
2023/06/22 03:41:09;;;;;;;20.85;19.05;;;25.70;70.80;;;;;;4650969;55;21531;-35
2023/06/22 03:46:10;;;;;;;19.55;17.77;;;25.70;70.90;;;;;;4640222;56;21097;-39
2023/06/22 03:51:10;;;;;;;20.20;18.40;;;25.70;70.90;;;;;;4652695;55;21544;-34
2023/06/22 03:56:12;;;;;;;20.77;18.87;;;25.70;70.90;;;;;;4615711;59;21101;-37
2023/06/22 04:01:12;;;;;;;20.15;18.30;;;25.70;70.90;;;;;;4615378;60;21034;-38
2023/06/22 04:06:13;;;;;;;23.10;20.98;;;25.70;71.40;;;;;;4669938;55;21089;-34
2023/06/22 04:11:14;;;;;;;19.98;18.23;;;25.70;70.90;;;;;;4630574;55;21037;-35
2023/06/22 04:16:15;;;;;;;20.23;18.35;;;25.70;70.90;;;;;;4681081;56;21495;-36
2023/06/22 04:21:16;;;;;;;19.55;17.75;;;25.70;70.90;;;;;;4630830;56;21113;-36
2023/06/22 04:26:16;;;;;;;19.75;18.05;;;25.70;70.90;;;;;;4649539;55;21045;-38
2023/06/22 04:31:19;;;;;;;21.23;19.33;;;25.70;70.90;;;;;;4711956;55;21555;-38
2023/06/22 04:36:20;;;;;;;19.95;18.15;;;25.70;70.90;;;;;;4748027;55;21523;-36
2023/06/22 04:41:23;;;;;;;21.85;19.85;;;25.70;70.90;;;;;;4617715;55;21606;-35
2023/06/22 04:46:24;;;;;;;20.83;18.85;;;25.70;70.90;;;;;;4669953;55;21472;-37
2023/06/22 04:51:30;;;;;;;19.77;17.95;;;25.70;70.90;;;;;;4676107;55;21048;-38
2023/06/22 04:56:31;;;;;;;20.15;18.30;;;25.70;70.90;;;;;;4617478;55;21602;-39
2023/06/22 05:01:32;;;;;;;21.70;19.70;;;25.70;70.90;;;;;;4615481;60;21093;-37
2023/06/22 05:06:33;;;;;;;21.33;19.37;;;25.70;70.90;;;;;;4677681;55;21539;-35
2023/06/22 05:11:34;;;;;;;20.30;18.40;;;25.70;70.90;;;;;;4680533;56;21089;-40
2023/06/22 05:16:36;;;;;;;21.35;19.45;;;25.70;70.90;;;;;;4650719;55;21026;-37
2023/06/22 05:21:37;;;;;;;19.92;18.08;;;25.70;70.90;;;;;;4615298;60;21527;-34
2023/06/22 05:26:38;;;;;;;21.98;19.87;;;25.70;70.90;;;;;;4822733;55;21013;-39
2023/06/22 05:31:40;;;;;;;21.58;19.65;;;25.70;70.90;;;;;;4615442;58;21504;-39
2023/06/22 05:36:43;;;;;;;21.33;19.42;;;25.70;70.90;;;;;;4697165;55;21441;-36
2023/06/22 05:41:46;;;;;;;20.80;18.95;;;25.70;70.90;;;;;;4662120;55;21562;-36
2023/06/22 05:46:48;;;;;;;21.10;19.15;;;25.70;71.50;;;;;;4658668;56;21073;-35
2023/06/22 05:51:48;;;;;;;22.85;20.50;;;25.70;70.90;;;;;;4657683;55;21534;-36
2023/06/22 05:56:49;;;;;;;21.48;19.52;;;25.70;70.90;;;;;;4622140;55;21037;-38
2023/06/22 06:01:50;;;;;;;21.12;19.15;;;25.70;71.00;;;;;;4615831;59;21492;-37
2023/06/22 06:06:51;;;;;;;20.77;18.87;;;25.70;70.90;;;;;;4786638;55;21017;-40
2023/06/22 06:11:52;;;;;;;21.00;19.00;;;25.70;70.90;;;;;;4648781;55;21057;-38
2023/06/22 06:16:53;;;;;;;19.05;17.40;;;25.70;70.90;;;;;;4676600;55;21021;-38
2023/06/22 06:21:53;;;;;;;19.77;18.02;;;25.70;70.80;;;;;;4661353;56;21065;-35
2023/06/22 06:26:55;;;;;;;21.00;19.10;;;25.70;70.90;;;;;;4626091;55;21061;-36
2023/06/22 06:31:56;;;;;;;20.83;18.92;;;25.70;70.80;;;;;;4659313;55;21615;-35
2023/06/22 06:36:57;;;;;;;20.95;19.05;;;25.70;70.80;;;;;;4654784;55;21551;-36
2023/06/22 06:41:58;;;;;;;20.83;19.02;;;25.70;70.80;;;;;;4685386;55;21037;-37
2023/06/22 06:46:59;;;;;;;21.17;19.27;;;25.70;70.90;;;;;;4639071;55;21041;-34
2023/06/22 06:52:00;;;;;;;20.90;18.77;;;25.70;71.10;;;;;;4612640;60;21556;-32
2023/06/22 06:57:03;;;;;;;21.17;19.17;;;25.80;71.40;;;;;;4686382;55;21037;-38
2023/06/22 07:02:05;;;;;;;20.55;18.70;;;25.90;71.20;;;;;;4626187;55;21720;-40
2023/06/22 07:07:06;;;;;;;21.35;19.30;;;25.90;71.60;;;;;;4623090;56;21037;-36
2023/06/22 07:12:07;;;;;;;21.62;19.27;;;25.90;71.80;;;;;;4624816;55;21958;-29
2023/06/22 07:17:08;;;;;;;19.60;17.83;;;25.90;72.10;;;;;;4629642;56;21486;-39
2023/06/22 07:22:09;;;;;;;20.80;18.80;;;25.90;72.20;;;;;;4627799;55;21417;-38
2023/06/22 07:27:12;;;;;;;22.37;20.27;;;25.90;72.40;;;;;;4632715;56;21380;-34
2023/06/22 07:32:13;;;;;;;21.50;19.27;;;25.90;72.20;;;;;;4637226;55;21531;-40
2023/06/22 07:37:13;;;;;;;22.10;20.02;;;25.90;72.20;;;;;;4633602;55;21184;-39
2023/06/22 07:42:18;;;;;;;21.90;19.80;;;25.90;72.10;;;;;;4636176;55;21622;-38
2023/06/22 07:47:19;;;;;;;21.00;19.00;;;25.90;72.20;;;;;;4637723;56;21026;-37
2023/06/22 07:52:21;;;;;;;21.17;19.05;;;25.90;72.20;;;;;;4614086;56;21077;-34
2023/06/22 07:57:21;;;;;;;22.33;20.23;;;25.90;72.10;;;;;;4641538;56;21539;-40
2023/06/22 08:02:22;;;;;;;20.20;18.33;;;25.90;72.20;;;;;;4651263;55;21041;-41
2023/06/22 08:07:23;;;;;;;22.37;20.17;;;25.90;72.10;;;;;;4619536;55;22102;-37
2023/06/22 08:12:24;;;;;;;21.37;19.37;;;25.90;72.10;;;;;;4614025;60;21619;-39
2023/06/22 08:17:25;;;;;;;22.17;20.08;;;25.90;72.10;;;;;;4624361;55;21100;-37
2023/06/22 08:22:26;;;;;;;21.52;19.45;;;25.90;72.10;;;;;;4614057;59;21029;-37
2023/06/22 08:27:28;;;;;;;21.92;19.92;;;25.90;72.00;;;;;;4613983;59;21425;-39
2023/06/22 08:32:29;;;;;;;22.15;19.87;;;25.90;72.10;;;;;;4623060;55;21499;-37
2023/06/22 08:37:30;;;;;;;22.92;20.65;;;25.90;72.10;;;;;;4638712;56;21105;-36
2023/06/22 08:42:31;;;;;;;22.98;20.90;;;25.90;72.00;;;;;;4614409;56;21100;-39
2023/06/22 08:47:32;;;;;;;22.30;20.10;;;25.90;72.10;;;;;;4627250;55;21506;-40
2023/06/22 08:52:33;;;;;;;24.12;21.92;;;25.90;72.00;;;;;;4616245;55;21057;-36
2023/06/22 08:57:34;;;;;;;23.50;21.05;;;25.90;72.60;;;;;;4622963;55;21065;-39
2023/06/22 09:02:35;;;;;;;25.20;22.80;;;25.90;72.00;;;;;;4687930;55;21021;-36
2023/06/22 09:07:36;;;;;;;23.50;21.30;;;26.00;72.10;;;;;;4624401;55;21033;-37
2023/06/22 09:12:37;;;;;;;23.02;20.83;;;26.00;72.70;;;;;;4648329;55;21491;-37
2023/06/22 09:17:38;;;;;;;22.65;20.55;;;26.00;72.10;;;;;;4666461;55;21595;-36
2023/06/22 09:22:39;;;;;;;25.90;23.35;;;26.00;72.00;;;;;;4719938;56;21017;-37
2023/06/22 09:27:40;;;;;;;23.70;21.37;;;26.00;72.10;;;;;;4615318;59;21025;-36
2023/06/22 09:32:42;;;;;;;24.25;21.95;;;26.00;72.10;;;;;;4615724;59;21009;-35
2023/06/22 09:37:43;;;;;;;24.83;22.33;;;26.00;72.10;;;;;;4614619;57;21073;-35
2023/06/22 09:42:43;;;;;;;24.33;21.92;;;26.00;72.10;;;;;;4615444;59;21495;-39
2023/06/22 09:47:44;;;;;;;23.45;21.25;;;26.00;72.10;;;;;;4615223;60;21069;-40
2023/06/22 09:52:50;;;;;;;24.67;22.23;;;26.00;72.10;;;;;;4679641;55;21025;-38
2023/06/22 09:57:51;;;;;;;26.13;23.63;;;26.00;72.10;;;;;;4615384;56;21053;-38
2023/06/22 10:02:52;;;;;;;26.12;23.52;;;26.00;72.10;;;;;;4615308;59;21073;-37
2023/06/22 10:07:53;;;;;;;25.25;22.75;;;26.00;72.10;;;;;;4704824;55;21681;-37
2023/06/22 10:13:02;;;;;;;25.55;23.08;;;26.00;72.10;;;;;;4615330;60;21078;-40
2023/06/22 10:18:03;;;;;;;26.50;23.90;;;26.00;72.00;;;;;;4775006;56;21028;-39
2023/06/22 10:23:04;;;;;;;25.98;23.45;;;26.00;72.00;;;;;;4615221;60;21519;-39
2023/06/22 10:28:05;;;;;;;28.92;26.15;;;26.00;72.00;;;;;;4637177;56;21598;-35
2023/06/22 10:33:06;;;;;;;28.98;26.08;;;26.10;71.90;;;;;;4621406;55;21050;-35
2023/06/22 10:38:07;;;;;;;29.12;26.33;;;26.10;71.80;;;;;;4612777;59;21088;-37
2023/06/22 10:43:08;;;;;;;28.75;25.92;;;26.20;72.10;;;;;;4652528;55;21610;-35
2023/06/22 10:48:09;;;;;;;28.15;25.23;;;26.20;72.20;;;;;;4614674;56;21033;-36
2023/06/22 10:53:10;;;;;;;29.33;26.50;;;26.20;72.40;;;;;;4613416;59;21663;-32
2023/06/22 10:58:11;;;;;;;29.77;26.75;;;26.20;72.40;;;;;;4616866;55;21053;-36
2023/06/22 11:03:13;;;;;;;29.58;26.85;;;26.20;72.60;;;;;;4653437;55;21056;-35
2023/06/22 11:08:14;;;;;;;29.17;26.30;;;26.20;72.70;;;;;;4620558;55;22241;-35
2023/06/22 11:13:15;;;;;;;31.02;27.92;;;26.30;73.00;;;;;;4630360;55;21125;-35
2023/06/22 11:18:16;;;;;;;29.63;26.65;;;26.30;73.20;;;;;;4627555;55;21584;-36
2023/06/22 11:23:17;;;;;;;30.73;27.80;;;26.30;73.30;;;;;;4628383;55;21064;-34
2023/06/22 11:28:18;;;;;;;30.95;27.98;;;26.30;73.40;;;;;;4622889;55;22433;-31
2023/06/22 11:33:19;;;;;;;30.42;27.45;;;26.30;73.50;;;;;;4613851;59;21133;-30
2023/06/22 11:38:19;;;;;;;29.92;26.92;;;26.30;73.60;;;;;;4612439;60;21101;-36
2023/06/22 11:43:20;;;;;;;30.37;27.58;;;26.30;73.70;;;;;;4648852;55;21128;-34
2023/06/22 11:48:21;;;;;;;32.15;29.00;;;26.30;73.90;;;;;;4630139;55;21121;-37
2023/06/22 11:53:26;;;;;;;30.92;27.98;;;26.40;74.00;;;;;;4622443;56;21478;-34
2023/06/22 11:58:27;;;;;;;32.25;28.87;;;26.30;73.90;;;;;;4612000;60;21085;-29
2023/06/22 12:03:28;;;;;;;30.05;27.15;;;26.40;74.10;;;;;;4614222;56;21057;-33
2023/06/22 12:08:29;;;;;;;31.48;28.33;;;26.40;74.00;;;;;;4613385;59;21554;-31
2023/06/22 12:13:30;;;;;;;30.95;27.90;;;26.40;74.00;;;;;;4617235;55;21108;-35
2023/06/22 12:18:31;;;;;;;31.67;28.48;;;26.40;74.00;;;;;;4653097;55;21104;-34
2023/06/22 12:23:32;;;;;;;31.42;28.20;;;26.40;74.10;;;;;;4618590;55;21093;-36
2023/06/22 12:28:32;;;;;;;31.48;28.52;;;26.40;74.00;;;;;;4634389;56;21085;-32
2023/06/22 12:33:35;;;;;;;30.60;27.55;;;26.40;74.00;;;;;;4622908;55;21009;-34
2023/06/22 12:38:35;;;;;;;32.90;29.48;;;26.40;74.10;;;;;;4612726;56;21523;-33
2023/06/22 12:43:36;;;;;;;30.73;27.77;;;26.40;74.20;;;;;;4613311;59;21025;-35
2023/06/22 12:48:41;;;;;;;30.73;27.73;;;26.40;74.00;;;;;;4639092;55;21021;-35
2023/06/22 12:53:43;;;;;;;30.98;27.92;;;26.40;74.00;;;;;;4619438;55;21594;-36
2023/06/22 12:58:44;;;;;;;30.25;27.10;;;26.40;74.10;;;;;;4612883;59;21646;-36
2023/06/22 13:03:45;;;;;;;30.67;27.77;;;26.40;74.10;;;;;;4641479;55;21042;-32
2023/06/22 13:08:46;;;;;;;31.33;28.17;;;26.50;74.30;;;;;;4619634;55;21080;-35
2023/06/22 13:13:47;;;;;;;32.15;28.90;;;26.50;74.30;;;;;;4625418;55;21029;-34
2023/06/22 13:18:47;;;;;;;31.08;27.98;;;26.50;74.40;;;;;;4637465;55;21610;-34
2023/06/22 13:23:48;;;;;;;30.17;27.25;;;26.50;74.40;;;;;;4618948;55;21028;-37
2023/06/22 13:28:49;;;;;;;29.73;26.83;;;26.50;75.40;;;;;;4619080;55;21098;-40
2023/06/22 13:33:52;;;;;;;28.40;25.58;;;26.50;74.20;;;;;;4614895;56;21057;-36
2023/06/22 13:38:52;;;;;;;29.50;26.60;;;26.50;74.10;;;;;;4612939;59;21125;-38
2023/06/22 13:43:53;;;;;;;27.55;24.77;;;26.50;74.10;;;;;;4614103;60;21093;-36
2023/06/22 13:48:54;;;;;;;30.27;27.27;;;26.50;74.10;;;;;;4611513;59;21062;-39
2023/06/22 13:53:55;;;;;;;30.92;27.83;;;26.40;74.00;;;;;;4667715;55;21025;-39
2023/06/22 13:58:56;;;;;;;28.73;25.62;;;26.40;74.00;;;;;;4637000;56;21571;-38
2023/06/22 14:03:57;;;;;;;30.88;27.85;;;26.40;73.90;;;;;;4672718;55;21115;-33
2023/06/22 14:08:57;;;;;;;30.08;27.13;;;26.40;73.80;;;;;;4615743;60;21124;-37
2023/06/22 14:13:58;;;;;;;30.55;27.70;;;26.40;73.70;;;;;;4691946;55;21053;-38
2023/06/22 14:18:59;;;;;;;31.00;28.10;;;26.40;73.60;;;;;;4614796;59;21021;-35
2023/06/22 14:24:00;;;;;;;30.42;27.50;;;26.40;73.60;;;;;;4716104;56;21092;-37
2023/06/22 14:29:01;;;;;;;29.40;26.60;;;26.40;73.50;;;;;;4615228;59;21021;-35
2023/06/22 14:34:03;;;;;;;30.83;27.83;;;26.40;73.40;;;;;;4646445;55;21202;-38
2023/06/22 14:39:04;;;;;;;30.42;27.40;;;26.40;73.10;;;;;;4635586;55;21598;-38
2023/06/22 14:44:05;;;;;;;30.80;27.80;;;26.40;73.20;;;;;;4682260;56;21025;-37
2023/06/22 14:49:06;;;;;;;29.90;27.00;;;26.40;73.20;;;;;;4667942;56;21056;-38
2023/06/22 14:54:07;;;;;;;29.77;26.87;;;26.40;73.00;;;;;;4635185;55;21022;-34
2023/06/22 14:59:08;;;;;;;31.10;28.17;;;26.40;73.10;;;;;;4722218;55;21993;-37
2023/06/22 15:04:10;;;;;;;31.52;28.40;;;26.40;73.00;;;;;;4615205;59;21510;-37
2023/06/22 15:09:11;;;;;;;29.52;26.60;;;26.40;72.90;;;;;;4621559;55;21836;-38
2023/06/22 15:14:14;;;;;;;29.85;26.90;;;26.40;73.00;;;;;;4670967;55;21020;-37
2023/06/22 15:19:15;;;;;;;29.25;26.45;;;26.40;73.00;;;;;;4660458;56;21646;-38
2023/06/22 15:24:16;;;;;;;29.20;26.37;;;26.40;72.90;;;;;;4706264;55;21017;-39
2023/06/22 15:29:16;;;;;;;30.50;27.58;;;26.40;72.90;;;;;;4615279;57;21105;-39
2023/06/22 15:34:17;;;;;;;29.02;26.15;;;26.40;72.90;;;;;;4617429;55;21076;-39
2023/06/22 15:39:18;;;;;;;30.08;27.08;;;26.40;72.90;;;;;;4697864;55;21108;-35
2023/06/22 15:44:19;;;;;;;31.35;28.25;;;26.40;72.90;;;;;;4649832;55;21506;-36
2023/06/22 15:49:20;;;;;;;30.45;27.30;;;26.40;72.80;;;;;;4717929;56;21025;-36
2023/06/22 15:54:21;;;;;;;30.27;27.33;;;26.40;72.80;;;;;;4648640;55;21470;-37
2023/06/22 15:59:23;;;;;;;32.00;29.00;;;26.40;72.80;;;;;;4645471;55;21021;-37
2023/06/22 16:04:24;;;;;;;29.55;26.75;;;26.40;72.80;;;;;;4642106;55;21120;-38
2023/06/22 16:09:25;;;;;;;31.20;28.23;;;26.40;72.80;;;;;;4639177;55;21021;-38
2023/06/22 16:14:26;;;;;;;30.98;28.05;;;26.40;72.80;;;;;;4615350;60;21025;-36
2023/06/22 16:19:26;;;;;;;30.95;28.00;;;26.40;72.80;;;;;;4632463;55;21562;-36
2023/06/22 16:24:28;;;;;;;30.67;27.67;;;26.40;72.80;;;;;;4646814;55;21096;-37
2023/06/22 16:29:29;;;;;;;30.12;27.23;;;26.40;72.80;;;;;;4645481;56;21494;-39
2023/06/22 16:34:31;;;;;;;31.25;28.23;;;26.40;72.70;;;;;;4614158;60;21037;-34
2023/06/22 16:39:32;;;;;;;30.83;27.92;;;26.40;72.70;;;;;;4668900;55;21080;-39
2023/06/22 16:44:34;;;;;;;31.50;28.33;;;26.40;72.70;;;;;;4615589;60;21088;-39
2023/06/22 16:49:38;;;;;;;30.55;27.45;;;26.40;72.70;;;;;;4615713;60;21157;-35
2023/06/22 16:54:43;;;;;;;31.30;28.38;;;26.40;72.60;;;;;;4709755;55;21558;-34
2023/06/22 16:59:44;;;;;;;31.52;28.55;;;26.40;72.70;;;;;;4614686;60;21689;-38
2023/06/22 17:04:45;;;;;;;32.08;29.00;;;26.40;72.60;;;;;;4650375;55;21339;-37
2023/06/22 17:09:47;;;;;;;30.83;27.83;;;26.40;72.70;;;;;;4665774;56;21029;-36
2023/06/22 17:14:51;;;;;;;30.88;27.87;;;26.50;72.70;;;;;;4681138;56;21041;-37
2023/06/22 17:19:52;;;;;;;31.17;28.08;;;26.40;72.60;;;;;;4623903;56;21177;-36
2023/06/22 17:24:53;;;;;;;30.77;27.67;;;26.40;72.60;;;;;;4615126;55;21192;-35
2023/06/22 17:30:16;;;;;;;30.75;27.65;;;26.40;72.70;;;;;;4625375;56;21144;-36
2023/06/22 17:35:17;;;;;;;29.42;26.62;;;26.40;72.70;;;;;;4658867;56;21456;-38
2023/06/22 17:40:21;;;;;;;30.92;27.83;;;26.50;72.80;;;;;;4645432;56;21108;-38
2023/06/22 17:45:23;;;;;;;32.58;29.48;;;26.50;72.70;;;;;;4615872;56;21072;-38
2023/06/22 17:50:25;;;;;;;30.50;27.50;;;26.50;72.80;;;;;;4615094;60;21105;-33
2023/06/22 17:55:26;;;;;;;32.35;29.23;;;26.50;72.80;;;;;;4620083;55;21627;-38
2023/06/22 18:00:28;;;;;;;29.87;26.95;;;26.50;72.80;;;;;;4614516;60;21109;-39
2023/06/22 18:05:36;;;;;;;31.27;28.30;;;26.50;72.80;;;;;;4655861;56;21415;-39
2023/06/22 18:10:40;;;;;;;30.30;27.45;;;26.50;72.90;;;;;;4634713;56;21531;-37
2023/06/22 18:15:41;;;;;;;29.83;27.02;;;26.50;72.90;;;;;;4622694;56;21092;-36
2023/06/22 18:20:44;;;;;;;32.33;29.08;;;26.50;72.90;;;;;;4639204;56;21040;-39
2023/06/22 18:25:48;;;;;;;32.25;29.12;;;26.50;72.90;;;;;;4698319;56;21033;-39
2023/06/22 18:30:49;;;;;;;33.00;29.77;;;26.50;72.90;;;;;;4615702;60;21512;-38
2023/06/22 18:35:52;;;;;;;31.50;28.30;;;26.50;73.00;;;;;;4650104;56;21101;-37
2023/06/22 18:40:53;;;;;;;32.58;29.45;;;26.50;73.00;;;;;;4614365;60;21447;-39
2023/06/22 18:45:54;;;;;;;31.87;28.83;;;26.50;73.00;;;;;;4615767;59;21542;-36
2023/06/22 18:51:11;;;;;;;33.42;30.27;;;26.50;73.00;;;;;;4681829;56;21100;-37
2023/06/22 18:56:13;;;;;;;32.97;29.67;;;26.50;73.10;;;;;;4675342;56;21766;-36
2023/06/22 19:01:23;;;;;;;33.83;30.52;;;26.50;73.20;;;;;;4615096;60;21021;-36
2023/06/22 19:06:54;;;;;;;31.85;28.85;;;26.50;73.20;;;;;;4713177;56;21583;-37
2023/06/22 19:12:18;;;;;;;31.83;28.52;;;26.50;73.20;;;;;;4619415;55;21065;-36
2023/06/22 19:17:19;;;;;;;32.65;29.35;;;26.50;73.30;;;;;;4615176;60;21873;-38
2023/06/22 19:22:43;;;;;;;34.15;30.85;;;26.50;73.30;;;;;;4623218;55;21365;-39
2023/06/22 19:27:45;;;;;;;32.30;29.20;;;26.50;73.40;;;;;;4615649;60;21507;-34
2023/06/22 19:32:47;;;;;;;32.38;29.27;;;26.50;73.40;;;;;;4690296;56;21020;-39
2023/06/22 19:37:48;;;;;;;32.38;29.08;;;26.50;73.40;;;;;;4615164;60;21535;-38
2023/06/22 19:42:54;;;;;;;33.95;30.65;;;26.50;73.40;;;;;;4690994;56;21073;-37
2023/06/22 19:47:56;;;;;;;33.20;29.92;;;26.50;73.40;;;;;;4677815;56;21559;-37
2023/06/22 19:52:57;;;;;;;33.33;30.12;;;26.50;73.50;;;;;;4760333;55;22377;-35
2023/06/22 19:57:58;;;;;;;31.33;28.30;;;26.50;73.50;;;;;;4661568;55;21588;-37
2023/06/22 20:02:59;;;;;;;32.38;29.27;;;26.50;73.50;;;;;;4630081;55;21014;-38
2023/06/22 20:08:03;;;;;;;32.83;29.63;;;26.50;73.60;;;;;;4704615;56;21164;-35
2023/06/22 20:13:13;;;;;;;33.17;29.98;;;26.50;73.60;;;;;;4643496;55;21082;-37
2023/06/22 20:18:15;;;;;;;34.28;30.85;;;26.50;73.50;;;;;;4783834;56;22181;-36
2023/06/22 20:23:22;;;;;;;33.60;30.25;;;26.50;73.60;;;;;;4649300;56;21049;-39
2023/06/22 20:28:25;;;;;;;32.95;29.75;;;26.50;73.60;;;;;;4615977;59;21527;-38
2023/06/22 20:33:27;;;;;;;32.28;29.25;;;26.50;73.60;;;;;;4647023;56;21488;-37
2023/06/22 20:38:28;;;;;;;33.13;29.90;;;26.50;73.60;;;;;;4624442;56;21608;-37
2023/06/22 20:43:29;;;;;;;34.42;31.08;;;26.50;73.60;;;;;;4615383;59;21503;-35
2023/06/22 20:48:30;;;;;;;30.80;27.90;;;26.50;73.60;;;;;;4658460;55;21073;-36
2023/06/22 20:53:32;;;;;;;33.75;30.42;;;26.50;73.70;;;;;;4638079;55;21512;-36
2023/06/22 20:58:32;;;;;;;32.88;29.67;;;26.50;73.60;;;;;;4615160;60;21663;-37
2023/06/22 21:03:35;;;;;;;32.00;28.87;;;26.50;73.60;;;;;;4615320;59;21009;-36
2023/06/22 21:08:38;;;;;;;32.55;29.35;;;26.50;74.30;;;;;;4615877;59;21627;-37
2023/06/22 21:13:38;;;;;;;33.15;29.95;;;26.50;73.70;;;;;;4620064;55;21089;-35
2023/06/22 21:18:39;;;;;;;32.33;29.10;;;26.50;73.70;;;;;;4615003;60;21093;-37
2023/06/22 21:23:40;;;;;;;31.77;28.67;;;26.50;73.70;;;;;;4651517;55;21017;-36
2023/06/22 21:28:41;;;;;;;33.20;30.12;;;26.50;73.70;;;;;;4649305;55;21583;-35
2023/06/22 21:33:42;;;;;;;33.50;30.30;;;26.50;73.70;;;;;;4728161;55;21504;-34
2023/06/22 21:38:43;;;;;;;32.60;29.40;;;26.50;73.70;;;;;;4619784;55;22068;-34
2023/06/22 21:43:44;;;;;;;32.78;29.58;;;26.50;73.70;;;;;;4615760;56;21076;-35
2023/06/22 21:48:45;;;;;;;32.28;29.23;;;26.50;73.70;;;;;;4640222;55;21526;-35
2023/06/22 21:53:46;;;;;;;32.35;29.23;;;26.50;73.70;;;;;;4670967;55;21013;-37
2023/06/22 21:58:47;;;;;;;31.83;28.83;;;26.50;73.70;;;;;;4615529;55;21483;-37
2023/06/22 22:03:48;;;;;;;30.40;27.60;;;26.50;73.70;;;;;;4615222;59;21065;-36
2023/06/22 22:08:50;;;;;;;31.35;28.35;;;26.50;73.70;;;;;;4708609;55;21033;-38
2023/06/22 22:13:52;;;;;;;30.10;27.25;;;26.50;73.70;;;;;;4668465;56;21519;-37
2023/06/22 22:18:53;;;;;;;32.67;29.58;;;26.50;73.70;;;;;;4678649;56;21599;-36
2023/06/22 22:23:54;;;;;;;31.70;28.67;;;26.50;73.70;;;;;;4629896;55;21092;-35
2023/06/22 22:28:55;;;;;;;32.15;29.15;;;26.50;73.70;;;;;;4628752;55;21523;-34
2023/06/22 22:33:55;;;;;;;32.45;29.25;;;26.50;73.70;;;;;;4618064;55;21335;-35
2023/06/22 22:38:56;;;;;;;31.35;28.35;;;26.50;73.70;;;;;;4668966;55;21128;-37
2023/06/22 22:43:58;;;;;;;31.83;28.87;;;26.50;73.70;;;;;;4643081;55;21093;-38
2023/06/22 22:48:58;;;;;;;31.20;28.15;;;26.50;73.60;;;;;;4763792;56;21049;-38
2023/06/22 22:53:59;;;;;;;31.60;28.50;;;26.50;73.60;;;;;;4624064;55;21507;-36
2023/06/22 22:59:00;;;;;;;31.58;28.67;;;26.50;73.60;;;;;;4633120;55;21029;-36
2023/06/22 23:04:01;;;;;;;33.17;30.15;;;26.50;73.60;;;;;;4721795;55;22225;-37
2023/06/22 23:09:02;;;;;;;30.23;27.33;;;26.50;73.60;;;;;;4615417;56;21076;-36
2023/06/22 23:14:03;;;;;;;30.37;27.52;;;26.50;73.60;;;;;;4676672;56;21080;-35
2023/06/22 23:19:04;;;;;;;29.27;26.48;;;26.50;73.60;;;;;;4640337;55;21128;-34
2023/06/22 23:24:07;;;;;;;33.30;30.12;;;26.50;73.60;;;;;;4743914;55;21025;-36
2023/06/22 23:29:08;;;;;;;31.25;28.27;;;26.50;73.60;;;;;;4622035;56;21593;-35
2023/06/22 23:34:10;;;;;;;30.85;27.95;;;26.50;73.60;;;;;;4661967;55;21085;-38
2023/06/22 23:39:12;;;;;;;30.95;28.05;;;26.50;73.60;;;;;;4812385;55;21617;-37
2023/06/22 23:44:13;;;;;;;29.95;27.20;;;26.50;73.60;;;;;;4615683;60;21563;-35
2023/06/22 23:49:14;;;;;;;31.42;28.42;;;26.50;73.60;;;;;;4668688;55;21100;-35
2023/06/22 23:54:16;;;;;;;30.50;27.60;;;26.50;73.60;;;;;;4626645;55;21552;-35
2023/06/22 23:59:17;;;;;;;31.87;28.87;;;26.50;73.60;;;;;;4755264;55;21081;-33
